sensor_id;sensor_type;location;lat;lon;timestamp;P1;durP1;ratioP1;P2;durP2;ratioP2
22829;SDS011;11581;51.250;6.778;2023-02-28T00:01:12;5.25;;;2.92;;
22829;SDS011;11581;51.250;6.778;2023-02-28T00:03:40;6.65;;;2.63;;
22829;SDS011;11581;51.250;6.778;2023-02-28T00:06:08;4.78;;;2.67;;
22829;SDS011;11581;51.250;6.778;2023-02-28T00:08:36;6.05;;;2.83;;
22829;SDS011;11581;51.250;6.778;2023-02-28T00:11:07;6.15;;;2.47;;
22829;SDS011;11581;51.250;6.778;2023-02-28T00:13:36;7.00;;;2.67;;
22829;SDS011;11581;51.250;6.778;2023-02-28T00:16:08;4.25;;;2.63;;
22829;SDS011;11581;51.250;6.778;2023-02-28T00:18:38;4.45;;;2.63;;
22829;SDS011;11581;51.250;6.778;2023-02-28T00:21:05;7.15;;;2.95;;
22829;SDS011;11581;51.250;6.778;2023-02-28T00:23:34;7.35;;;2.63;;
22829;SDS011;11581;51.250;6.778;2023-02-28T00:26:01;5.22;;;2.13;;
22829;SDS011;11581;51.250;6.778;2023-02-28T00:28:29;5.00;;;2.55;;
22829;SDS011;11581;51.250;6.778;2023-02-28T00:30:58;6.20;;;2.50;;
22829;SDS011;11581;51.250;6.778;2023-02-28T00:33:25;5.78;;;2.30;;
22829;SDS011;11581;51.250;6.778;2023-02-28T00:36:00;7.35;;;2.70;;
22829;SDS011;11581;51.250;6.778;2023-02-28T00:38:29;5.07;;;2.50;;
22829;SDS011;11581;51.250;6.778;2023-02-28T00:40:55;6.20;;;2.80;;
22829;SDS011;11581;51.250;6.778;2023-02-28T00:43:24;7.90;;;2.88;;
22829;SDS011;11581;51.250;6.778;2023-02-28T00:45:54;5.90;;;2.60;;
22829;SDS011;11581;51.250;6.778;2023-02-28T00:48:20;5.97;;;2.45;;
22829;SDS011;11581;51.250;6.778;2023-02-28T00:50:48;4.78;;;2.80;;
22829;SDS011;11581;51.250;6.778;2023-02-28T00:53:17;4.97;;;2.63;;
22829;SDS011;11581;51.250;6.778;2023-02-28T00:55:45;5.15;;;2.53;;
22829;SDS011;11581;51.250;6.778;2023-02-28T00:58:12;5.72;;;2.45;;
22829;SDS011;11581;51.250;6.778;2023-02-28T01:00:39;7.30;;;2.92;;
22829;SDS011;11581;51.250;6.778;2023-02-28T01:03:07;4.43;;;2.30;;
22829;SDS011;11581;51.250;6.778;2023-02-28T01:05:35;5.43;;;2.30;;
22829;SDS011;11581;51.250;6.778;2023-02-28T01:08:02;4.93;;;2.63;;
22829;SDS011;11581;51.250;6.778;2023-02-28T01:10:29;4.40;;;2.10;;
22829;SDS011;11581;51.250;6.778;2023-02-28T01:12:56;8.05;;;2.38;;
22829;SDS011;11581;51.250;6.778;2023-02-28T01:15:23;4.35;;;2.10;;
22829;SDS011;11581;51.250;6.778;2023-02-28T01:17:50;4.75;;;2.60;;
22829;SDS011;11581;51.250;6.778;2023-02-28T01:20:19;8.20;;;2.38;;
22829;SDS011;11581;51.250;6.778;2023-02-28T01:22:46;7.25;;;2.85;;
22829;SDS011;11581;51.250;6.778;2023-02-28T01:25:13;5.60;;;2.50;;
22829;SDS011;11581;51.250;6.778;2023-02-28T01:27:41;6.13;;;2.47;;
22829;SDS011;11581;51.250;6.778;2023-02-28T01:30:08;4.55;;;2.30;;
22829;SDS011;11581;51.250;6.778;2023-02-28T01:32:37;12.27;;;2.55;;
22829;SDS011;11581;51.250;6.778;2023-02-28T01:35:04;6.07;;;2.13;;
22829;SDS011;11581;51.250;6.778;2023-02-28T01:37:33;4.72;;;2.55;;
22829;SDS011;11581;51.250;6.778;2023-02-28T01:40:00;5.15;;;2.25;;
22829;SDS011;11581;51.250;6.778;2023-02-28T01:42:26;5.28;;;2.63;;
22829;SDS011;11581;51.250;6.778;2023-02-28T01:44:55;5.30;;;2.28;;
22829;SDS011;11581;51.250;6.778;2023-02-28T01:47:25;5.32;;;2.40;;
22829;SDS011;11581;51.250;6.778;2023-02-28T01:49:56;5.07;;;2.47;;
22829;SDS011;11581;51.250;6.778;2023-02-28T01:52:23;4.97;;;2.47;;
22829;SDS011;11581;51.250;6.778;2023-02-28T01:54:54;6.43;;;2.80;;
22829;SDS011;11581;51.250;6.778;2023-02-28T01:57:26;6.28;;;2.72;;
22829;SDS011;11581;51.250;6.778;2023-02-28T02:00:04;6.63;;;3.30;;
22829;SDS011;11581;51.250;6.778;2023-02-28T02:02:46;5.97;;;2.90;;
22829;SDS011;11581;51.250;6.778;2023-02-28T02:05:16;6.97;;;2.70;;
22829;SDS011;11581;51.250;6.778;2023-02-28T02:07:44;5.72;;;2.85;;
22829;SDS011;11581;51.250;6.778;2023-02-28T02:10:15;6.22;;;3.25;;
22829;SDS011;11581;51.250;6.778;2023-02-28T02:13:00;6.70;;;2.67;;
22829;SDS011;11581;51.250;6.778;2023-02-28T02:15:40;6.82;;;3.38;;
22829;SDS011;11581;51.250;6.778;2023-02-28T02:18:18;6.88;;;3.03;;
22829;SDS011;11581;51.250;6.778;2023-02-28T02:24:09;5.30;;;3.00;;
22829;SDS011;11581;51.250;6.778;2023-02-28T02:27:05;6.38;;;2.78;;
22829;SDS011;11581;51.250;6.778;2023-02-28T02:29:44;5.00;;;2.67;;
22829;SDS011;11581;51.250;6.778;2023-02-28T02:35:15;5.47;;;2.25;;
22829;SDS011;11581;51.250;6.778;2023-02-28T02:37:51;5.05;;;2.80;;
22829;SDS011;11581;51.250;6.778;2023-02-28T02:40:24;5.22;;;2.67;;
22829;SDS011;11581;51.250;6.778;2023-02-28T02:42:58;5.63;;;3.10;;
22829;SDS011;11581;51.250;6.778;2023-02-28T02:45:31;6.82;;;2.97;;
22829;SDS011;11581;51.250;6.778;2023-02-28T02:48:01;5.13;;;3.00;;
22829;SDS011;11581;51.250;6.778;2023-02-28T02:50:33;4.25;;;2.85;;
22829;SDS011;11581;51.250;6.778;2023-02-28T02:53:03;8.05;;;3.45;;
22829;SDS011;11581;51.250;6.778;2023-02-28T02:55:34;6.90;;;3.05;;
22829;SDS011;11581;51.250;6.778;2023-02-28T02:58:06;5.10;;;2.42;;
22829;SDS011;11581;51.250;6.778;2023-02-28T03:00:37;8.15;;;3.35;;
22829;SDS011;11581;51.250;6.778;2023-02-28T03:03:09;7.40;;;2.80;;
22829;SDS011;11581;51.250;6.778;2023-02-28T03:05:41;5.82;;;3.38;;
22829;SDS011;11581;51.250;6.778;2023-02-28T03:08:12;6.20;;;3.13;;
22829;SDS011;11581;51.250;6.778;2023-02-28T03:13:24;6.65;;;2.97;;
22829;SDS011;11581;51.250;6.778;2023-02-28T03:16:15;6.20;;;3.15;;
22829;SDS011;11581;51.250;6.778;2023-02-28T03:18:54;5.82;;;2.92;;
22829;SDS011;11581;51.250;6.778;2023-02-28T03:21:34;4.80;;;2.78;;
22829;SDS011;11581;51.250;6.778;2023-02-28T03:24:05;7.28;;;2.75;;
22829;SDS011;11581;51.250;6.778;2023-02-28T03:26:38;9.70;;;2.88;;
22829;SDS011;11581;51.250;6.778;2023-02-28T03:29:10;5.35;;;2.85;;
22829;SDS011;11581;51.250;6.778;2023-02-28T03:31:43;5.90;;;2.95;;
22829;SDS011;11581;51.250;6.778;2023-02-28T03:34:14;6.63;;;2.90;;
22829;SDS011;11581;51.250;6.778;2023-02-28T03:36:47;6.43;;;2.28;;
22829;SDS011;11581;51.250;6.778;2023-02-28T03:39:19;6.20;;;3.17;;
22829;SDS011;11581;51.250;6.778;2023-02-28T03:41:49;4.65;;;2.65;;
22829;SDS011;11581;51.250;6.778;2023-02-28T03:44:20;5.18;;;2.80;;
22829;SDS011;11581;51.250;6.778;2023-02-28T03:46:52;6.47;;;2.58;;
22829;SDS011;11581;51.250;6.778;2023-02-28T03:49:25;8.70;;;2.65;;
22829;SDS011;11581;51.250;6.778;2023-02-28T03:51:58;5.70;;;2.60;;
22829;SDS011;11581;51.250;6.778;2023-02-28T03:54:29;5.03;;;3.03;;
22829;SDS011;11581;51.250;6.778;2023-02-28T03:56:59;4.00;;;2.15;;
22829;SDS011;11581;51.250;6.778;2023-02-28T03:59:34;8.05;;;2.50;;
22829;SDS011;11581;51.250;6.778;2023-02-28T04:02:04;5.78;;;2.03;;
22829;SDS011;11581;51.250;6.778;2023-02-28T04:04:31;5.18;;;2.67;;
22829;SDS011;11581;51.250;6.778;2023-02-28T04:07:03;4.80;;;2.20;;
22829;SDS011;11581;51.250;6.778;2023-02-28T04:09:31;6.07;;;2.17;;
22829;SDS011;11581;51.250;6.778;2023-02-28T04:11:57;3.85;;;2.10;;
22829;SDS011;11581;51.250;6.778;2023-02-28T04:14:24;7.68;;;2.60;;
22829;SDS011;11581;51.250;6.778;2023-02-28T04:16:51;5.90;;;2.88;;
22829;SDS011;11581;51.250;6.778;2023-02-28T04:19:18;5.00;;;2.20;;
22829;SDS011;11581;51.250;6.778;2023-02-28T04:21:45;4.88;;;2.20;;
22829;SDS011;11581;51.250;6.778;2023-02-28T04:24:16;6.07;;;2.53;;
22829;SDS011;11581;51.250;6.778;2023-02-28T04:26:44;3.90;;;1.95;;
22829;SDS011;11581;51.250;6.778;2023-02-28T04:29:13;3.65;;;2.20;;
22829;SDS011;11581;51.250;6.778;2023-02-28T04:31:43;3.92;;;2.15;;
22829;SDS011;11581;51.250;6.778;2023-02-28T04:34:10;5.43;;;2.40;;
22829;SDS011;11581;51.250;6.778;2023-02-28T04:36:37;3.55;;;1.98;;
22829;SDS011;11581;51.250;6.778;2023-02-28T04:39:03;5.75;;;2.78;;
22829;SDS011;11581;51.250;6.778;2023-02-28T04:41:31;6.93;;;2.40;;
22829;SDS011;11581;51.250;6.778;2023-02-28T04:43:58;4.13;;;2.20;;
22829;SDS011;11581;51.250;6.778;2023-02-28T04:46:25;6.38;;;2.38;;
22829;SDS011;11581;51.250;6.778;2023-02-28T04:48:51;5.30;;;2.20;;
22829;SDS011;11581;51.250;6.778;2023-02-28T04:51:19;4.00;;;2.10;;
22829;SDS011;11581;51.250;6.778;2023-02-28T04:53:46;5.07;;;2.25;;
22829;SDS011;11581;51.250;6.778;2023-02-28T04:56:15;6.22;;;2.30;;
22829;SDS011;11581;51.250;6.778;2023-02-28T04:58:44;3.30;;;1.90;;
22829;SDS011;11581;51.250;6.778;2023-02-28T05:01:21;7.50;;;2.67;;
22829;SDS011;11581;51.250;6.778;2023-02-28T05:03:50;7.72;;;2.30;;
22829;SDS011;11581;51.250;6.778;2023-02-28T05:06:18;4.40;;;2.25;;
22829;SDS011;11581;51.250;6.778;2023-02-28T05:08:45;3.80;;;2.17;;
22829;SDS011;11581;51.250;6.778;2023-02-28T05:11:14;5.00;;;2.17;;
22829;SDS011;11581;51.250;6.778;2023-02-28T05:13:44;5.10;;;2.17;;
22829;SDS011;11581;51.250;6.778;2023-02-28T05:16:11;4.30;;;2.17;;
22829;SDS011;11581;51.250;6.778;2023-02-28T05:18:38;5.40;;;2.33;;
22829;SDS011;11581;51.250;6.778;2023-02-28T05:21:05;7.53;;;2.67;;
22829;SDS011;11581;51.250;6.778;2023-02-28T05:23:48;4.13;;;2.05;;
22829;SDS011;11581;51.250;6.778;2023-02-28T05:26:15;5.30;;;2.40;;
22829;SDS011;11581;51.250;6.778;2023-02-28T05:28:42;6.10;;;2.88;;
22829;SDS011;11581;51.250;6.778;2023-02-28T05:31:10;7.47;;;2.58;;
22829;SDS011;11581;51.250;6.778;2023-02-28T05:33:37;7.15;;;2.60;;
22829;SDS011;11581;51.250;6.778;2023-02-28T05:36:05;4.95;;;2.38;;
22829;SDS011;11581;51.250;6.778;2023-02-28T05:38:32;6.50;;;2.22;;
22829;SDS011;11581;51.250;6.778;2023-02-28T05:40:58;4.47;;;2.30;;
22829;SDS011;11581;51.250;6.778;2023-02-28T05:43:25;7.05;;;2.10;;
22829;SDS011;11581;51.250;6.778;2023-02-28T05:45:52;6.40;;;2.30;;
22829;SDS011;11581;51.250;6.778;2023-02-28T05:48:20;3.90;;;2.20;;
22829;SDS011;11581;51.250;6.778;2023-02-28T05:50:46;4.85;;;2.20;;
22829;SDS011;11581;51.250;6.778;2023-02-28T05:53:13;7.35;;;2.50;;
22829;SDS011;11581;51.250;6.778;2023-02-28T05:55:40;7.03;;;2.70;;
22829;SDS011;11581;51.250;6.778;2023-02-28T05:58:07;5.70;;;2.55;;
22829;SDS011;11581;51.250;6.778;2023-02-28T06:00:33;4.18;;;2.10;;
22829;SDS011;11581;51.250;6.778;2023-02-28T06:03:00;6.72;;;2.70;;
22829;SDS011;11581;51.250;6.778;2023-02-28T06:05:28;6.93;;;2.65;;
22829;SDS011;11581;51.250;6.778;2023-02-28T06:07:55;5.68;;;2.67;;
22829;SDS011;11581;51.250;6.778;2023-02-28T06:10:21;4.85;;;2.30;;
22829;SDS011;11581;51.250;6.778;2023-02-28T06:12:48;3.80;;;2.08;;
22829;SDS011;11581;51.250;6.778;2023-02-28T06:15:15;6.07;;;2.67;;
22829;SDS011;11581;51.250;6.778;2023-02-28T06:17:42;6.00;;;2.30;;
22829;SDS011;11581;51.250;6.778;2023-02-28T06:20:10;6.32;;;2.38;;
22829;SDS011;11581;51.250;6.778;2023-02-28T06:22:39;7.57;;;2.53;;
22829;SDS011;11581;51.250;6.778;2023-02-28T06:25:06;3.65;;;1.85;;
22829;SDS011;11581;51.250;6.778;2023-02-28T06:27:33;3.80;;;1.85;;
22829;SDS011;11581;51.250;6.778;2023-02-28T06:30:00;6.05;;;2.42;;
22829;SDS011;11581;51.250;6.778;2023-02-28T06:32:27;5.05;;;2.58;;
22829;SDS011;11581;51.250;6.778;2023-02-28T06:34:53;3.38;;;2.05;;
22829;SDS011;11581;51.250;6.778;2023-02-28T06:37:22;5.18;;;2.45;;
22829;SDS011;11581;51.250;6.778;2023-02-28T06:39:53;4.00;;;2.10;;
22829;SDS011;11581;51.250;6.778;2023-02-28T06:42:21;4.07;;;2.17;;
22829;SDS011;11581;51.250;6.778;2023-02-28T06:44:50;4.95;;;2.33;;
22829;SDS011;11581;51.250;6.778;2023-02-28T06:47:16;6.38;;;2.10;;
22829;SDS011;11581;51.250;6.778;2023-02-28T06:49:43;4.55;;;2.15;;
22829;SDS011;11581;51.250;6.778;2023-02-28T06:52:10;4.80;;;2.08;;
22829;SDS011;11581;51.250;6.778;2023-02-28T06:54:36;4.63;;;2.50;;
22829;SDS011;11581;51.250;6.778;2023-02-28T06:57:04;4.03;;;2.00;;
22829;SDS011;11581;51.250;6.778;2023-02-28T06:59:31;6.53;;;2.10;;
22829;SDS011;11581;51.250;6.778;2023-02-28T07:01:58;4.18;;;2.30;;
22829;SDS011;11581;51.250;6.778;2023-02-28T07:04:25;3.80;;;1.70;;
22829;SDS011;11581;51.250;6.778;2023-02-28T07:06:52;4.43;;;2.03;;
22829;SDS011;11581;51.250;6.778;2023-02-28T07:09:21;4.13;;;2.20;;
22829;SDS011;11581;51.250;6.778;2023-02-28T07:11:48;3.83;;;1.88;;
22829;SDS011;11581;51.250;6.778;2023-02-28T07:14:16;4.25;;;1.83;;
22829;SDS011;11581;51.250;6.778;2023-02-28T07:16:43;3.50;;;1.95;;
22829;SDS011;11581;51.250;6.778;2023-02-28T07:19:10;3.90;;;1.60;;
22829;SDS011;11581;51.250;6.778;2023-02-28T07:21:37;4.10;;;1.88;;
22829;SDS011;11581;51.250;6.778;2023-02-28T07:24:03;2.53;;;1.50;;
22829;SDS011;11581;51.250;6.778;2023-02-28T07:26:30;5.55;;;1.83;;
22829;SDS011;11581;51.250;6.778;2023-02-28T07:28:59;5.72;;;2.25;;
22829;SDS011;11581;51.250;6.778;2023-02-28T07:31:27;3.78;;;1.77;;
22829;SDS011;11581;51.250;6.778;2023-02-28T07:33:54;4.30;;;2.05;;
22829;SDS011;11581;51.250;6.778;2023-02-28T07:36:21;3.00;;;1.67;;
22829;SDS011;11581;51.250;6.778;2023-02-28T07:38:48;4.18;;;1.95;;
22829;SDS011;11581;51.250;6.778;2023-02-28T07:41:16;3.50;;;1.70;;
22829;SDS011;11581;51.250;6.778;2023-02-28T07:43:43;7.63;;;1.98;;
22829;SDS011;11581;51.250;6.778;2023-02-28T07:46:11;3.30;;;1.80;;
22829;SDS011;11581;51.250;6.778;2023-02-28T07:48:41;3.22;;;1.67;;
22829;SDS011;11581;51.250;6.778;2023-02-28T07:51:08;7.25;;;1.98;;
22829;SDS011;11581;51.250;6.778;2023-02-28T07:53:35;3.97;;;1.73;;
22829;SDS011;11581;51.250;6.778;2023-02-28T07:56:02;3.70;;;1.92;;
22829;SDS011;11581;51.250;6.778;2023-02-28T07:58:29;2.60;;;1.48;;
22829;SDS011;11581;51.250;6.778;2023-02-28T08:00:57;4.32;;;1.63;;
22829;SDS011;11581;51.250;6.778;2023-02-28T08:03:30;4.72;;;1.40;;
22829;SDS011;11581;51.250;6.778;2023-02-28T08:05:58;3.47;;;1.50;;
22829;SDS011;11581;51.250;6.778;2023-02-28T08:08:25;2.92;;;1.33;;
22829;SDS011;11581;51.250;6.778;2023-02-28T08:10:54;3.67;;;1.25;;
22829;SDS011;11581;51.250;6.778;2023-02-28T08:13:20;3.08;;;1.35;;
22829;SDS011;11581;51.250;6.778;2023-02-28T08:15:47;2.72;;;1.10;;
22829;SDS011;11581;51.250;6.778;2023-02-28T08:18:14;1.85;;;1.10;;
22829;SDS011;11581;51.250;6.778;2023-02-28T08:20:40;2.40;;;1.40;;
22829;SDS011;11581;51.250;6.778;2023-02-28T08:23:08;2.47;;;1.30;;
22829;SDS011;11581;51.250;6.778;2023-02-28T08:25:35;2.28;;;1.15;;
22829;SDS011;11581;51.250;6.778;2023-02-28T08:28:01;4.30;;;1.30;;
22829;SDS011;11581;51.250;6.778;2023-02-28T08:30:28;5.80;;;1.23;;
22829;SDS011;11581;51.250;6.778;2023-02-28T08:32:55;1.83;;;0.88;;
22829;SDS011;11581;51.250;6.778;2023-02-28T08:35:21;2.00;;;1.23;;
22829;SDS011;11581;51.250;6.778;2023-02-28T08:37:48;2.92;;;1.25;;
22829;SDS011;11581;51.250;6.778;2023-02-28T08:40:17;3.10;;;1.05;;
22829;SDS011;11581;51.250;6.778;2023-02-28T08:42:44;2.00;;;1.25;;
22829;SDS011;11581;51.250;6.778;2023-02-28T08:45:10;3.08;;;1.30;;
22829;SDS011;11581;51.250;6.778;2023-02-28T08:47:37;2.85;;;1.60;;
22829;SDS011;11581;51.250;6.778;2023-02-28T08:50:04;5.05;;;1.17;;
22829;SDS011;11581;51.250;6.778;2023-02-28T08:52:31;2.55;;;1.10;;
22829;SDS011;11581;51.250;6.778;2023-02-28T08:54:58;1.60;;;1.08;;
22829;SDS011;11581;51.250;6.778;2023-02-28T08:57:26;2.70;;;1.17;;
22829;SDS011;11581;51.250;6.778;2023-02-28T08:59:52;2.60;;;0.80;;
22829;SDS011;11581;51.250;6.778;2023-02-28T09:02:19;2.63;;;1.10;;
22829;SDS011;11581;51.250;6.778;2023-02-28T09:04:46;5.47;;;1.38;;
22829;SDS011;11581;51.250;6.778;2023-02-28T09:07:12;2.17;;;0.85;;
22829;SDS011;11581;51.250;6.778;2023-02-28T09:09:39;2.97;;;0.98;;
22829;SDS011;11581;51.250;6.778;2023-02-28T09:12:18;1.83;;;0.82;;
22829;SDS011;11581;51.250;6.778;2023-02-28T09:14:46;2.63;;;1.10;;
22829;SDS011;11581;51.250;6.778;2023-02-28T09:17:13;2.70;;;1.20;;
22829;SDS011;11581;51.250;6.778;2023-02-28T09:19:40;2.60;;;1.13;;
22829;SDS011;11581;51.250;6.778;2023-02-28T09:22:07;1.83;;;0.90;;
22829;SDS011;11581;51.250;6.778;2023-02-28T09:24:35;2.20;;;1.20;;
22829;SDS011;11581;51.250;6.778;2023-02-28T09:27:02;2.35;;;0.90;;
22829;SDS011;11581;51.250;6.778;2023-02-28T09:29:28;2.30;;;0.90;;
22829;SDS011;11581;51.250;6.778;2023-02-28T09:31:56;2.47;;;0.93;;
22829;SDS011;11581;51.250;6.778;2023-02-28T09:34:23;1.95;;;0.95;;
22829;SDS011;11581;51.250;6.778;2023-02-28T09:36:50;2.05;;;0.80;;
22829;SDS011;11581;51.250;6.778;2023-02-28T09:39:19;2.80;;;1.00;;
22829;SDS011;11581;51.250;6.778;2023-02-28T09:41:47;1.85;;;1.00;;
22829;SDS011;11581;51.250;6.778;2023-02-28T09:44:18;2.67;;;0.95;;
22829;SDS011;11581;51.250;6.778;2023-02-28T09:46:51;2.10;;;1.13;;
22829;SDS011;11581;51.250;6.778;2023-02-28T09:49:23;2.03;;;0.90;;
22829;SDS011;11581;51.250;6.778;2023-02-28T09:51:55;3.38;;;0.98;;
22829;SDS011;11581;51.250;6.778;2023-02-28T09:54:27;2.15;;;1.10;;
22829;SDS011;11581;51.250;6.778;2023-02-28T09:56:56;1.77;;;1.10;;
22829;SDS011;11581;51.250;6.778;2023-02-28T09:59:37;2.08;;;1.00;;
22829;SDS011;11581;51.250;6.778;2023-02-28T10:02:18;2.08;;;1.15;;
22829;SDS011;11581;51.250;6.778;2023-02-28T10:05:04;4.88;;;1.30;;
22829;SDS011;11581;51.250;6.778;2023-02-28T10:07:37;3.05;;;1.08;;
22829;SDS011;11581;51.250;6.778;2023-02-28T10:10:18;3.20;;;1.42;;
22829;SDS011;11581;51.250;6.778;2023-02-28T10:12:48;1.33;;;0.75;;
22829;SDS011;11581;51.250;6.778;2023-02-28T10:15:19;2.90;;;0.90;;
22829;SDS011;11581;51.250;6.778;2023-02-28T10:17:49;2.97;;;1.25;;
22829;SDS011;11581;51.250;6.778;2023-02-28T10:20:23;3.60;;;1.10;;
22829;SDS011;11581;51.250;6.778;2023-02-28T10:22:57;2.47;;;1.00;;
22829;SDS011;11581;51.250;6.778;2023-02-28T10:25:32;3.30;;;1.38;;
22829;SDS011;11581;51.250;6.778;2023-02-28T10:28:00;3.33;;;1.23;;
22829;SDS011;11581;51.250;6.778;2023-02-28T10:30:31;2.63;;;1.05;;
22829;SDS011;11581;51.250;6.778;2023-02-28T10:32:58;2.47;;;1.17;;
22829;SDS011;11581;51.250;6.778;2023-02-28T10:35:26;4.40;;;1.25;;
22829;SDS011;11581;51.250;6.778;2023-02-28T10:37:54;2.30;;;1.05;;
22829;SDS011;11581;51.250;6.778;2023-02-28T10:40:27;2.50;;;1.13;;
22829;SDS011;11581;51.250;6.778;2023-02-28T10:45:24;2.25;;;1.10;;
22829;SDS011;11581;51.250;6.778;2023-02-28T10:47:53;3.95;;;1.17;;
22829;SDS011;11581;51.250;6.778;2023-02-28T10:50:30;2.28;;;1.30;;
22829;SDS011;11581;51.250;6.778;2023-02-28T10:53:17;2.22;;;1.10;;
22829;SDS011;11581;51.250;6.778;2023-02-28T10:55:58;3.40;;;1.20;;
22829;SDS011;11581;51.250;6.778;2023-02-28T10:58:27;2.45;;;1.00;;
22829;SDS011;11581;51.250;6.778;2023-02-28T11:00:55;3.25;;;1.25;;
22829;SDS011;11581;51.250;6.778;2023-02-28T11:03:28;1.60;;;0.93;;
22829;SDS011;11581;51.250;6.778;2023-02-28T11:06:04;4.40;;;1.17;;
22829;SDS011;11581;51.250;6.778;2023-02-28T11:08:32;2.35;;;1.02;;
22829;SDS011;11581;51.250;6.778;2023-02-28T11:11:01;2.58;;;1.00;;
22829;SDS011;11581;51.250;6.778;2023-02-28T11:13:32;1.77;;;0.88;;
22829;SDS011;11581;51.250;6.778;2023-02-28T11:16:00;2.45;;;0.80;;
22829;SDS011;11581;51.250;6.778;2023-02-28T11:18:30;2.42;;;0.98;;
22829;SDS011;11581;51.250;6.778;2023-02-28T11:21:04;1.58;;;1.00;;
22829;SDS011;11581;51.250;6.778;2023-02-28T11:23:32;2.10;;;1.05;;
22829;SDS011;11581;51.250;6.778;2023-02-28T11:26:03;2.50;;;1.00;;
22829;SDS011;11581;51.250;6.778;2023-02-28T11:28:35;2.95;;;1.33;;
22829;SDS011;11581;51.250;6.778;2023-02-28T11:31:04;4.45;;;1.05;;
22829;SDS011;11581;51.250;6.778;2023-02-28T11:33:41;2.17;;;0.95;;
22829;SDS011;11581;51.250;6.778;2023-02-28T11:36:12;2.20;;;1.20;;
22829;SDS011;11581;51.250;6.778;2023-02-28T11:38:42;2.15;;;1.10;;
22829;SDS011;11581;51.250;6.778;2023-02-28T11:41:17;1.13;;;0.80;;
22829;SDS011;11581;51.250;6.778;2023-02-28T11:44:11;3.35;;;1.27;;
22829;SDS011;11581;51.250;6.778;2023-02-28T11:46:59;3.55;;;1.90;;
22829;SDS011;11581;51.250;6.778;2023-02-28T11:49:32;3.67;;;1.38;;
22829;SDS011;11581;51.250;6.778;2023-02-28T11:52:08;3.28;;;1.60;;
22829;SDS011;11581;51.250;6.778;2023-02-28T11:54:51;2.90;;;1.55;;
22829;SDS011;11581;51.250;6.778;2023-02-28T11:57:36;3.75;;;1.83;;
22829;SDS011;11581;51.250;6.778;2023-02-28T12:00:19;2.53;;;1.38;;
22829;SDS011;11581;51.250;6.778;2023-02-28T12:03:00;9.43;;;3.05;;
22829;SDS011;11581;51.250;6.778;2023-02-28T12:05:36;8.80;;;3.60;;
22829;SDS011;11581;51.250;6.778;2023-02-28T12:08:18;4.93;;;1.80;;
22829;SDS011;11581;51.250;6.778;2023-02-28T12:10:57;4.72;;;1.80;;
22829;SDS011;11581;51.250;6.778;2023-02-28T12:13:39;4.63;;;1.50;;
22829;SDS011;11581;51.250;6.778;2023-02-28T12:16:31;3.20;;;1.40;;
22829;SDS011;11581;51.250;6.778;2023-02-28T12:19:21;18.95;;;8.10;;
22829;SDS011;11581;51.250;6.778;2023-02-28T12:25:02;6.90;;;3.17;;
22829;SDS011;11581;51.250;6.778;2023-02-28T12:27:47;4.40;;;2.15;;
22829;SDS011;11581;51.250;6.778;2023-02-28T12:30:16;6.88;;;3.25;;
22829;SDS011;11581;51.250;6.778;2023-02-28T12:32:48;18.27;;;7.22;;
22829;SDS011;11581;51.250;6.778;2023-02-28T12:35:18;7.82;;;3.90;;
22829;SDS011;11581;51.250;6.778;2023-02-28T12:37:50;5.90;;;2.33;;
22829;SDS011;11581;51.250;6.778;2023-02-28T12:40:21;3.90;;;1.73;;
22829;SDS011;11581;51.250;6.778;2023-02-28T12:42:50;7.38;;;3.58;;
22829;SDS011;11581;51.250;6.778;2023-02-28T12:45:19;3.30;;;1.55;;
22829;SDS011;11581;51.250;6.778;2023-02-28T12:47:49;3.03;;;1.60;;
22829;SDS011;11581;51.250;6.778;2023-02-28T12:50:21;2.53;;;1.33;;
22829;SDS011;11581;51.250;6.778;2023-02-28T12:52:51;4.95;;;2.20;;
22829;SDS011;11581;51.250;6.778;2023-02-28T12:55:27;2.40;;;1.60;;
22829;SDS011;11581;51.250;6.778;2023-02-28T12:58:05;2.88;;;1.13;;
22829;SDS011;11581;51.250;6.778;2023-02-28T13:00:43;1.95;;;0.90;;
22829;SDS011;11581;51.250;6.778;2023-02-28T13:03:28;2.97;;;0.90;;
22829;SDS011;11581;51.250;6.778;2023-02-28T13:06:20;3.20;;;1.17;;
22829;SDS011;11581;51.250;6.778;2023-02-28T13:09:09;4.40;;;1.17;;
22829;SDS011;11581;51.250;6.778;2023-02-28T13:11:43;3.97;;;1.10;;
22829;SDS011;11581;51.250;6.778;2023-02-28T13:14:16;1.90;;;1.00;;
22829;SDS011;11581;51.250;6.778;2023-02-28T13:17:01;2.53;;;1.23;;
22829;SDS011;11581;51.250;6.778;2023-02-28T13:19:37;4.10;;;1.40;;
22829;SDS011;11581;51.250;6.778;2023-02-28T13:22:05;3.88;;;1.15;;
22829;SDS011;11581;51.250;6.778;2023-02-28T13:24:44;2.38;;;1.15;;
22829;SDS011;11581;51.250;6.778;2023-02-28T13:33:24;1.73;;;0.80;;
22829;SDS011;11581;51.250;6.778;2023-02-28T13:36:09;6.50;;;1.20;;
22829;SDS011;11581;51.250;6.778;2023-02-28T13:38:56;1.65;;;0.93;;
22829;SDS011;11581;51.250;6.778;2023-02-28T13:41:45;3.83;;;1.20;;
22829;SDS011;11581;51.250;6.778;2023-02-28T13:44:15;2.78;;;1.00;;
22829;SDS011;11581;51.250;6.778;2023-02-28T13:49:50;1.23;;;0.77;;
22829;SDS011;11581;51.250;6.778;2023-02-28T13:52:18;5.05;;;1.27;;
22829;SDS011;11581;51.250;6.778;2023-02-28T13:54:56;2.50;;;1.13;;
22829;SDS011;11581;51.250;6.778;2023-02-28T13:57:38;2.60;;;1.10;;
22829;SDS011;11581;51.250;6.778;2023-02-28T14:00:18;2.55;;;1.20;;
22829;SDS011;11581;51.250;6.778;2023-02-28T14:03:00;2.70;;;1.20;;
22829;SDS011;11581;51.250;6.778;2023-02-28T14:05:38;3.17;;;1.10;;
22829;SDS011;11581;51.250;6.778;2023-02-28T14:08:06;2.83;;;1.42;;
22829;SDS011;11581;51.250;6.778;2023-02-28T14:13:13;3.53;;;1.13;;
22829;SDS011;11581;51.250;6.778;2023-02-28T14:15:57;2.15;;;1.27;;
22829;SDS011;11581;51.250;6.778;2023-02-28T14:18:27;2.38;;;1.02;;
22829;SDS011;11581;51.250;6.778;2023-02-28T14:20:58;3.95;;;1.73;;
22829;SDS011;11581;51.250;6.778;2023-02-28T14:26:37;2.45;;;1.33;;
22829;SDS011;11581;51.250;6.778;2023-02-28T14:29:21;3.10;;;1.30;;
22829;SDS011;11581;51.250;6.778;2023-02-28T14:32:02;2.15;;;1.00;;
22829;SDS011;11581;51.250;6.778;2023-02-28T14:34:39;3.50;;;1.55;;
22829;SDS011;11581;51.250;6.778;2023-02-28T14:37:13;2.28;;;1.10;;
22829;SDS011;11581;51.250;6.778;2023-02-28T14:39:44;2.13;;;1.00;;
22829;SDS011;11581;51.250;6.778;2023-02-28T14:42:27;2.55;;;1.20;;
22829;SDS011;11581;51.250;6.778;2023-02-28T14:44:54;4.50;;;0.95;;
22829;SDS011;11581;51.250;6.778;2023-02-28T14:47:23;1.65;;;1.10;;
22829;SDS011;11581;51.250;6.778;2023-02-28T14:49:54;2.08;;;1.20;;
22829;SDS011;11581;51.250;6.778;2023-02-28T14:52:21;2.30;;;1.00;;
22829;SDS011;11581;51.250;6.778;2023-02-28T14:54:51;2.83;;;1.30;;
22829;SDS011;11581;51.250;6.778;2023-02-28T14:57:23;4.13;;;1.00;;
22829;SDS011;11581;51.250;6.778;2023-02-28T14:59:58;2.63;;;1.20;;
22829;SDS011;11581;51.250;6.778;2023-02-28T15:02:37;2.38;;;1.20;;
22829;SDS011;11581;51.250;6.778;2023-02-28T15:05:14;2.55;;;1.30;;
22829;SDS011;11581;51.250;6.778;2023-02-28T15:08:00;4.05;;;1.33;;
22829;SDS011;11581;51.250;6.778;2023-02-28T15:10:30;9.00;;;2.05;;
22829;SDS011;11581;51.250;6.778;2023-02-28T15:12:58;4.53;;;1.80;;
22829;SDS011;11581;51.250;6.778;2023-02-28T15:15:29;2.60;;;1.40;;
22829;SDS011;11581;51.250;6.778;2023-02-28T15:18:07;3.17;;;1.55;;
22829;SDS011;11581;51.250;6.778;2023-02-28T15:20:41;2.90;;;1.42;;
22829;SDS011;11581;51.250;6.778;2023-02-28T15:23:10;3.17;;;1.20;;
22829;SDS011;11581;51.250;6.778;2023-02-28T15:25:37;5.63;;;1.75;;
22829;SDS011;11581;51.250;6.778;2023-02-28T15:28:09;3.58;;;1.60;;
22829;SDS011;11581;51.250;6.778;2023-02-28T15:30:49;2.58;;;1.40;;
22829;SDS011;11581;51.250;6.778;2023-02-28T15:33:19;3.42;;;1.42;;
22829;SDS011;11581;51.250;6.778;2023-02-28T15:35:48;3.30;;;1.65;;
22829;SDS011;11581;51.250;6.778;2023-02-28T15:38:16;2.30;;;1.20;;
22829;SDS011;11581;51.250;6.778;2023-02-28T15:40:49;1.95;;;1.23;;